Terminal Aerodrome Forecast
Issued by NWS Twin Cities, MN

Home | Current Version | Previous Version | Graphics & Text | Print | Product List | Glossary On
Versions: 1 2 3 4 5 6 7 8 9 10 11 12 13 14 15 16 17 18 19 20 21 22 23
000
FTUS43 KMPX 190256 AAA
TAFMSP
TAF AMD
KMSP 190256Z 1903/2006 20005KT P6SM OVC250
     FM190900 18004KT P6SM OVC200
     FM191500 19007KT P6SM BKN150
     FM192100 22008KT P6SM BKN150
     FM200100 25005KT P6SM OVC150=

USA.gov is the U.S. government's official web portal to all federal, state and local government web resources and services.